Time;durP1;ratioP1;P1;durP2;ratioP2;P2;SDS_P1;SDS_P2;PMS_P1;PMS_P2;Temp;Humidity;BMP_temperature;BMP_pressure;BME280_temperature;BME280_humidity;BME280_pressure;Samples;Min_cycle;Max_cycle;Signal;HPM_P1;HPM_P2
2022/02/20 15:44:45;;;;;;;43.33;9.07;;;11.10;97.30;;;;;;5067544;28;20371;-49
2022/02/20 15:47:12;;;;;;;51.65;9.48;;;11.00;97.30;;;;;;5062693;28;20052;-48
2022/02/20 15:49:39;;;;;;;40.80;8.85;;;11.10;97.10;;;;;;5055408;28;20384;-49
2022/02/20 15:52:05;;;;;;;48.00;8.57;;;11.10;97.40;;;;;;5068918;28;20043;-53
2022/02/20 15:54:32;;;;;;;48.13;10.80;;;11.10;97.40;;;;;;5069161;28;20045;-54
2022/02/20 15:56:59;;;;;;;37.35;8.35;;;11.10;97.40;;;;;;5068242;28;20041;-46
2022/02/20 15:59:27;;;;;;;40.05;8.32;;;11.20;97.50;;;;;;5068897;28;20036;-49
2022/02/20 16:01:54;;;;;;;36.05;8.30;;;11.20;97.70;;;;;;5050796;28;20033;-51
2022/02/20 16:04:23;;;;;;;35.35;8.27;;;11.20;97.60;;;;;;5049719;28;20464;-54
2022/02/20 16:06:50;;;;;;;36.42;7.93;;;11.10;97.80;;;;;;5049774;28;20091;-52
2022/02/20 16:09:17;;;;;;;29.10;7.68;;;11.10;97.70;;;;;;5049384;28;21714;-56
2022/02/20 16:11:43;;;;;;;31.63;6.60;;;11.20;97.60;;;;;;5066089;28;20475;-56
2022/02/20 16:14:10;;;;;;;25.08;6.38;;;11.20;97.60;;;;;;5063069;28;20068;-52
2022/02/20 16:16:37;;;;;;;33.47;7.00;;;11.20;97.50;;;;;;5049304;28;20553;-53
2022/02/20 16:19:03;;;;;;;31.30;6.72;;;11.20;97.40;;;;;;5064657;28;20494;-51
2022/02/20 16:21:30;;;;;;;29.83;6.55;;;11.20;97.40;;;;;;5068490;28;20035;-53
2022/02/20 16:24:02;;;;;;;25.23;6.70;;;11.20;97.20;;;;;;5061123;28;20036;-48
2022/02/20 16:26:29;;;;;;;28.80;6.47;;;11.20;97.10;;;;;;5068758;28;20140;-46
2022/02/20 16:28:56;;;;;;;34.95;8.07;;;11.30;97.00;;;;;;5067492;28;20036;-51
2022/02/20 16:31:22;;;;;;;25.38;6.45;;;11.30;96.90;;;;;;5068887;28;20047;-48
2022/02/20 16:33:49;;;;;;;30.95;7.72;;;11.30;96.80;;;;;;5067554;28;20052;-50
2022/02/20 16:36:16;;;;;;;29.70;6.78;;;11.30;96.90;;;;;;5068798;28;20045;-53
2022/02/20 16:38:44;;;;;;;22.67;6.38;;;11.30;96.90;;;;;;5067725;28;20408;-46
2022/02/20 16:41:11;;;;;;;28.27;7.13;;;11.30;96.80;;;;;;5068660;28;20049;-54
2022/02/20 16:43:37;;;;;;;25.13;6.93;;;11.30;96.70;;;;;;5067224;28;20495;-49
2022/02/20 16:46:04;;;;;;;25.98;6.85;;;11.40;96.70;;;;;;5068521;28;20452;-49
2022/02/20 16:48:31;;;;;;;27.60;6.60;;;11.40;96.90;;;;;;5067376;28;20083;-52
2022/02/20 16:51:01;;;;;;;26.08;7.25;;;11.30;97.10;;;;;;5067107;28;20048;-50
2022/02/20 16:53:31;;;;;;;33.97;6.95;;;11.30;97.40;;;;;;5068431;28;20471;-57
2022/02/20 16:55:58;;;;;;;28.42;6.45;;;11.20;97.40;;;;;;5055975;28;20504;-49
2022/02/20 16:58:25;;;;;;;36.15;7.97;;;11.20;97.40;;;;;;5055350;28;20407;-54
2022/02/20 17:00:54;;;;;;;32.08;7.65;;;11.20;97.60;;;;;;5054321;28;20041;-56
2022/02/20 17:03:20;;;;;;;32.13;6.93;;;11.20;97.60;;;;;;5053648;28;20405;-50
2022/02/20 17:05:47;;;;;;;27.20;7.13;;;11.20;97.60;;;;;;5054960;28;20045;-50
2022/02/20 17:08:14;;;;;;;38.20;9.82;;;11.20;97.20;;;;;;5053442;28;20037;-49
2022/02/20 17:10:41;;;;;;;33.65;8.25;;;11.20;97.30;;;;;;5040420;28;20053;-51
2022/02/20 17:13:07;;;;;;;36.60;8.18;;;11.20;97.20;;;;;;5035506;28;20053;-49
2022/02/20 17:15:35;;;;;;;36.75;8.38;;;11.20;97.20;;;;;;5035577;28;20535;-57
2022/02/20 17:18:02;;;;;;;35.38;8.95;;;11.20;97.10;;;;;;5051768;28;20479;-51
2022/02/20 17:20:29;;;;;;;38.10;7.53;;;11.20;97.10;;;;;;5054891;28;20400;-53
2022/02/20 17:22:55;;;;;;;31.13;8.43;;;11.20;97.10;;;;;;5054583;28;20033;-52
2022/02/20 17:25:22;;;;;;;38.05;8.35;;;11.20;97.00;;;;;;5038703;28;20046;-55
2022/02/20 17:27:50;;;;;;;33.15;7.60;;;11.20;96.70;;;;;;5050197;28;20072;-52
2022/02/20 17:30:17;;;;;;;32.97;8.32;;;11.30;96.80;;;;;;5054472;28;20098;-46
2022/02/20 17:32:43;;;;;;;31.35;8.43;;;11.30;96.70;;;;;;5053389;28;20072;-50
2022/02/20 17:35:10;;;;;;;43.80;11.02;;;11.30;96.60;;;;;;5054565;28;20053;-53
2022/02/20 17:37:41;;;;;;;37.25;9.48;;;11.30;96.70;;;;;;5052195;28;20488;-54
2022/02/20 17:40:08;;;;;;;45.47;10.32;;;11.40;96.40;;;;;;5035222;28;20056;-50
2022/02/20 17:42:34;;;;;;;31.08;9.05;;;11.40;96.40;;;;;;5035328;28;20103;-52
2022/02/20 17:45:01;;;;;;;40.60;8.73;;;11.40;96.40;;;;;;5035117;28;20038;-53
2022/02/20 17:47:28;;;;;;;37.00;8.15;;;11.40;96.30;;;;;;5049926;28;20094;-52
2022/02/20 17:49:54;;;;;;;38.05;9.90;;;11.40;96.40;;;;;;5054128;28;20159;-46
2022/02/20 17:52:21;;;;;;;46.10;17.65;;;11.40;96.40;;;;;;5053230;28;20146;-49
2022/02/20 17:54:48;;;;;;;30.10;7.43;;;11.40;96.40;;;;;;5054069;28;20051;-51
2022/02/20 17:57:14;;;;;;;31.33;7.65;;;11.40;96.40;;;;;;5054255;28;20049;-53
2022/02/20 17:59:41;;;;;;;24.98;7.43;;;11.40;96.30;;;;;;5052999;28;20049;-52
2022/02/20 18:02:08;;;;;;;32.47;7.78;;;11.40;96.30;;;;;;5053980;28;20073;-51
2022/02/20 18:04:35;;;;;;;24.27;6.85;;;11.40;96.40;;;;;;5054008;28;20044;-53
2022/02/20 18:07:04;;;;;;;24.00;5.50;;;11.50;96.30;;;;;;5051867;28;20094;-52
2022/02/20 18:09:31;;;;;;;21.52;5.72;;;11.50;96.20;;;;;;5053472;28;20452;-48
2022/02/20 18:11:58;;;;;;;25.27;5.07;;;11.50;96.30;;;;;;5053680;28;20040;-49
2022/02/20 18:14:24;;;;;;;18.67;5.57;;;11.50;96.50;;;;;;5053542;28;20048;-53
2022/02/20 18:16:51;;;;;;;21.73;5.53;;;11.50;96.80;;;;;;5053821;28;20049;-51
2022/02/20 18:19:18;;;;;;;23.00;5.18;;;11.50;96.60;;;;;;5052546;28;20098;-52
2022/02/20 18:21:45;;;;;;;18.63;4.43;;;11.50;96.60;;;;;;5053523;28;20094;-49
2022/02/20 18:24:12;;;;;;;21.02;5.10;;;11.50;96.60;;;;;;5053666;28;20483;-54
2022/02/20 18:26:39;;;;;;;22.08;5.45;;;11.50;96.70;;;;;;5053739;28;20041;-50
2022/02/20 18:29:05;;;;;;;17.98;4.35;;;11.50;96.60;;;;;;5052504;28;20476;-49
2022/02/20 18:31:32;;;;;;;18.27;4.65;;;11.50;96.60;;;;;;5053652;28;20037;-56
2022/02/20 18:33:59;;;;;;;19.00;4.20;;;11.50;96.60;;;;;;5053704;28;20052;-54
2022/02/20 18:36:25;;;;;;;19.08;4.78;;;11.50;96.60;;;;;;5034603;28;20049;-50
2022/02/20 18:38:54;;;;;;;19.08;4.78;;;11.50;96.90;;;;;;5032497;28;20058;-52
2022/02/20 18:41:20;;;;;;;20.23;4.70;;;11.50;96.90;;;;;;5034064;28;20079;-52
2022/02/20 18:43:47;;;;;;;18.48;4.65;;;11.40;96.90;;;;;;5037979;28;20522;-51
2022/02/20 18:46:14;;;;;;;19.08;4.93;;;11.50;97.20;;;;;;5053392;28;20476;-50
2022/02/20 18:48:41;;;;;;;21.85;4.70;;;11.40;97.50;;;;;;5053272;28;20041;-52
2022/02/20 18:51:08;;;;;;;20.75;4.60;;;11.30;97.90;;;;;;5052592;28;20107;-51
2022/02/20 18:53:34;;;;;;;16.63;4.70;;;11.20;98.20;;;;;;5047586;28;20488;-54
2022/02/20 18:56:01;;;;;;;18.35;4.85;;;11.10;98.90;;;;;;5034129;28;20067;-52
2022/02/20 18:58:28;;;;;;;16.40;4.30;;;11.10;99.10;;;;;;5034186;28;20401;-56
2022/02/20 19:00:55;;;;;;;14.10;3.58;;;11.10;99.00;;;;;;5034094;28;20125;-52
2022/02/20 19:03:22;;;;;;;13.27;3.10;;;11.10;98.40;;;;;;5052096;28;20041;-54
2022/02/20 19:05:49;;;;;;;10.02;2.50;;;11.00;98.70;;;;;;5052994;28;20076;-55
2022/02/20 19:08:16;;;;;;;7.13;2.33;;;11.00;97.90;;;;;;5053025;28;20071;-55
2022/02/20 19:10:42;;;;;;;7.38;2.05;;;11.00;97.60;;;;;;5053250;28;20407;-51
2022/02/20 19:13:09;;;;;;;6.97;1.95;;;11.00;97.40;;;;;;5052884;28;20041;-56
2022/02/20 19:15:40;;;;;;;8.00;2.13;;;10.90;96.40;;;;;;5041667;28;20103;-55
2022/02/20 19:18:08;;;;;;;10.48;1.70;;;10.90;96.70;;;;;;5033710;28;20069;-57
2022/02/20 19:20:35;;;;;;;5.25;1.15;;;10.20;95.30;;;;;;5045463;28;20488;-50
2022/02/20 19:23:01;;;;;;;2.70;0.80;;;9.20;96.20;;;;;;5052863;28;20114;-52
2022/02/20 19:25:28;;;;;;;4.57;1.10;;;8.60;95.80;;;;;;5052547;28;20067;-55
2022/02/20 19:27:55;;;;;;;4.63;0.80;;;8.40;96.60;;;;;;5040712;28;20041;-48
2022/02/20 19:30:22;;;;;;;3.15;0.80;;;8.20;97.00;;;;;;5033454;28;20115;-53
2022/02/20 19:32:48;;;;;;;3.83;0.70;;;8.00;96.40;;;;;;5033535;28;20099;-52
2022/02/20 19:35:15;;;;;;;2.67;0.95;;;7.80;95.10;;;;;;5033560;28;20042;-53
2022/02/20 19:37:42;;;;;;;2.53;0.93;;;7.70;96.20;;;;;;5033441;28;20080;-54
2022/02/20 19:40:09;;;;;;;3.70;1.05;;;7.70;96.80;;;;;;5032143;28;20049;-55
2022/02/20 19:42:35;;;;;;;4.25;1.42;;;7.70;96.20;;;;;;5033103;28;20091;-56
2022/02/20 19:45:02;;;;;;;5.95;1.20;;;7.70;96.60;;;;;;5033535;28;20164;-54
2022/02/20 19:47:29;;;;;;;6.43;2.35;;;7.70;95.70;;;;;;5045444;28;20060;-53
2022/02/20 19:49:56;;;;;;;7.25;1.90;;;7.60;96.20;;;;;;5051037;28;20048;-55
2022/02/20 19:52:22;;;;;;;5.97;1.80;;;7.60;94.50;;;;;;5052359;28;20037;-56
2022/02/20 19:54:54;;;;;;;8.52;1.95;;;7.60;94.90;;;;;;5052609;28;20123;-51
2022/02/20 19:57:20;;;;;;;7.90;1.83;;;7.50;94.70;;;;;;5051870;28;20652;-56
2022/02/20 19:59:48;;;;;;;12.95;3.50;;;7.40;94.60;;;;;;5050430;28;20154;-56
2022/02/20 20:02:15;;;;;;;13.07;2.35;;;7.40;94.00;;;;;;5052392;28;20041;-53
2022/02/20 20:04:41;;;;;;;12.80;2.28;;;7.40;93.80;;;;;;5049796;28;20045;-54
2022/02/20 20:07:08;;;;;;;12.02;2.67;;;7.40;93.50;;;;;;5050059;28;20065;-53
2022/02/20 20:09:35;;;;;;;12.63;2.35;;;7.40;93.60;;;;;;5049139;28;20075;-53
2022/02/20 20:12:02;;;;;;;8.30;2.33;;;7.30;93.50;;;;;;5049261;28;20488;-54
2022/02/20 20:14:29;;;;;;;13.27;3.15;;;7.30;93.60;;;;;;5050482;28;20051;-55
2022/02/20 20:16:56;;;;;;;10.27;2.38;;;7.20;93.40;;;;;;5050265;28;20474;-58
2022/02/20 20:19:22;;;;;;;10.52;2.22;;;7.10;93.60;;;;;;5050762;28;20044;-54
2022/02/20 20:21:49;;;;;;;12.93;2.20;;;7.10;93.20;;;;;;5052321;28;20071;-57
2022/02/20 20:24:16;;;;;;;10.93;1.88;;;7.10;92.80;;;;;;5052201;28;20095;-54
2022/02/20 20:26:42;;;;;;;10.07;2.10;;;7.00;93.10;;;;;;5052275;28;20099;-55
2022/02/20 20:29:09;;;;;;;10.65;2.50;;;7.00;92.80;;;;;;5051949;28;20076;-51
2022/02/20 20:31:36;;;;;;;7.72;2.00;;;6.90;93.10;;;;;;5055903;28;20095;-55
2022/02/20 20:34:03;;;;;;;9.27;2.20;;;6.90;91.90;;;;;;5055731;28;20117;-58
2022/02/20 20:36:29;;;;;;;10.20;2.25;;;6.90;91.70;;;;;;5055853;28;20565;-58
2022/02/20 20:38:56;;;;;;;10.43;2.45;;;6.90;91.10;;;;;;5055616;28;20502;-51
2022/02/20 20:41:23;;;;;;;7.45;1.95;;;6.90;90.80;;;;;;5055777;28;20049;-54
2022/02/20 20:43:50;;;;;;;6.13;1.75;;;6.80;87.50;;;;;;5054355;28;20132;-56
2022/02/20 20:46:16;;;;;;;8.85;2.13;;;6.80;86.20;;;;;;5055690;28;20067;-54
2022/02/20 20:48:43;;;;;;;4.93;1.65;;;6.80;86.80;;;;;;5055378;28;20080;-57
2022/02/20 20:51:12;;;;;;;8.52;3.13;;;6.70;88.00;;;;;;5055704;28;20033;-56
2022/02/20 20:53:39;;;;;;;7.75;2.10;;;6.70;90.50;;;;;;5055602;28;20048;-54
2022/02/20 20:56:05;;;;;;;7.22;1.90;;;6.60;90.10;;;;;;5055419;28;20041;-56
2022/02/20 20:58:32;;;;;;;8.20;2.60;;;6.60;90.00;;;;;;5055369;28;20037;-57
2022/02/20 21:00:59;;;;;;;7.63;1.60;;;6.60;90.00;;;;;;5055200;28;20404;-56
2022/02/20 21:03:26;;;;;;;8.95;2.60;;;6.60;89.40;;;;;;5054080;28;20047;-52
2022/02/20 21:05:53;;;;;;;12.23;2.70;;;6.60;89.10;;;;;;5055259;28;20069;-56
2022/02/20 21:08:20;;;;;;;8.25;2.15;;;6.60;88.80;;;;;;5055194;28;20388;-57
2022/02/20 21:10:49;;;;;;;11.30;2.17;;;6.60;88.40;;;;;;5055118;28;20041;-51
2022/02/20 21:13:16;;;;;;;10.77;1.98;;;6.60;86.20;;;;;;5053790;28;20043;-55
2022/02/20 21:15:45;;;;;;;7.78;1.92;;;6.60;87.50;;;;;;5054933;28;20041;-57
2022/02/20 21:18:12;;;;;;;10.57;2.40;;;6.50;85.20;;;;;;5054953;28;20040;-54
2022/02/20 21:20:39;;;;;;;12.73;2.28;;;6.50;85.60;;;;;;5055004;28;20081;-54
2022/02/20 21:23:05;;;;;;;7.45;1.98;;;6.50;84.10;;;;;;5054990;28;20045;-56
2022/02/20 21:25:32;;;;;;;8.70;2.15;;;6.50;84.00;;;;;;5054635;28;20124;-55
2022/02/20 21:27:59;;;;;;;8.48;2.08;;;6.50;84.50;;;;;;5054873;28;20403;-58
2022/02/20 21:30:26;;;;;;;12.05;2.08;;;6.50;84.90;;;;;;5054546;28;20480;-51
2022/02/20 21:32:52;;;;;;;9.25;2.05;;;6.50;85.70;;;;;;5054811;28;20041;-49
2022/02/20 21:35:19;;;;;;;9.82;2.78;;;6.50;85.70;;;;;;5035368;28;20069;-53
2022/02/20 21:37:46;;;;;;;7.85;2.20;;;6.50;86.40;;;;;;5041665;28;20045;-53
2022/02/20 21:40:13;;;;;;;10.02;2.00;;;6.50;86.80;;;;;;5054554;28;20075;-54
2022/02/20 21:42:41;;;;;;;8.85;2.15;;;6.50;87.00;;;;;;5054686;28;20049;-56
2022/02/20 21:45:08;;;;;;;9.45;2.00;;;6.50;87.30;;;;;;5053598;28;20133;-53
2022/02/20 21:47:35;;;;;;;12.63;2.47;;;6.50;84.80;;;;;;5054521;28;20049;-55
2022/02/20 21:50:01;;;;;;;9.10;2.80;;;6.60;85.90;;;;;;5054229;28;20068;-51
2022/02/20 21:52:28;;;;;;;9.52;2.25;;;6.60;84.70;;;;;;5054278;28;20504;-56
2022/02/20 21:54:56;;;;;;;8.45;1.80;;;6.50;83.80;;;;;;5054288;28;20525;-49
2022/02/20 21:57:23;;;;;;;8.02;2.00;;;6.50;81.80;;;;;;5054194;28;20127;-54
2022/02/20 21:59:50;;;;;;;8.20;1.50;;;6.50;81.90;;;;;;5054202;28;20064;-55
2022/02/20 22:02:17;;;;;;;8.25;2.03;;;6.40;81.30;;;;;;5054099;28;20072;-55
2022/02/20 22:04:43;;;;;;;9.27;1.90;;;6.30;82.20;;;;;;5054014;28;20040;-53
2022/02/20 22:07:10;;;;;;;8.48;1.70;;;6.30;82.70;;;;;;5054073;28;20086;-52
2022/02/20 22:09:37;;;;;;;9.20;1.90;;;6.20;82.00;;;;;;5035298;28;20068;-54
2022/02/20 22:12:04;;;;;;;9.73;1.95;;;6.20;83.60;;;;;;5034826;28;20041;-57
2022/02/20 22:14:30;;;;;;;11.55;2.28;;;6.10;82.50;;;;;;5045346;28;20041;-50
2022/02/20 22:16:57;;;;;;;10.70;2.10;;;6.00;83.50;;;;;;5052718;28;20041;-50
2022/02/20 22:19:24;;;;;;;10.10;2.55;;;6.00;82.80;;;;;;5053664;28;20094;-54
2022/02/20 22:21:51;;;;;;;11.00;2.75;;;6.00;83.90;;;;;;5054101;28;20435;-54
2022/02/20 22:24:17;;;;;;;12.57;2.83;;;5.90;83.20;;;;;;5053605;28;20051;-52
2022/02/20 22:26:44;;;;;;;10.23;2.25;;;5.90;83.40;;;;;;5053450;28;20051;-53
2022/02/20 22:29:11;;;;;;;7.78;1.73;;;5.90;84.20;;;;;;5053523;28;20090;-48
2022/02/20 22:31:37;;;;;;;9.48;2.08;;;5.80;83.70;;;;;;5053529;28;20553;-56
2022/02/20 22:34:04;;;;;;;9.50;2.05;;;5.80;84.30;;;;;;5053524;28;20087;-55
2022/02/20 22:36:32;;;;;;;12.52;3.15;;;5.80;83.60;;;;;;5053416;28;20130;-54
2022/02/20 22:38:59;;;;;;;7.05;1.90;;;5.70;82.80;;;;;;5053273;28;20037;-51
2022/02/20 22:41:26;;;;;;;13.18;2.42;;;5.70;83.00;;;;;;5053440;28;20045;-53
2022/02/20 22:43:53;;;;;;;13.80;2.20;;;5.70;82.60;;;;;;5052083;28;20040;-52
2022/02/20 22:46:20;;;;;;;12.20;2.17;;;5.70;81.20;;;;;;5053265;28;20041;-51
2022/02/20 22:48:47;;;;;;;6.88;1.80;;;5.70;79.60;;;;;;5053281;28;20120;-50
2022/02/20 22:51:13;;;;;;;8.88;1.83;;;5.70;79.50;;;;;;5053240;28;20507;-56
2022/02/20 22:53:40;;;;;;;11.63;2.75;;;5.60;80.30;;;;;;5052667;28;20033;-54
2022/02/20 22:56:08;;;;;;;10.57;2.10;;;5.70;78.60;;;;;;5053356;28;20043;-53
2022/02/20 22:58:35;;;;;;;9.82;2.22;;;5.60;78.90;;;;;;5053052;28;20076;-53
2022/02/20 23:01:01;;;;;;;10.65;2.75;;;5.60;79.00;;;;;;5053152;28;20052;-54
2022/02/20 23:03:29;;;;;;;14.07;2.85;;;5.60;77.20;;;;;;5053127;28;20131;-54
2022/02/20 23:05:56;;;;;;;9.93;2.78;;;5.60;77.30;;;;;;5053052;28;20037;-51
2022/02/20 23:08:23;;;;;;;9.27;2.15;;;5.60;77.60;;;;;;5052928;28;20064;-49
2022/02/20 23:10:50;;;;;;;12.70;2.47;;;5.50;77.00;;;;;;5052886;28;20033;-54
2022/02/20 23:13:17;;;;;;;12.73;2.22;;;5.50;76.90;;;;;;5052886;28;20056;-54
2022/02/20 23:15:44;;;;;;;9.63;2.30;;;5.50;76.30;;;;;;5053024;28;20125;-56
2022/02/20 23:18:10;;;;;;;8.23;2.33;;;5.50;75.00;;;;;;5052964;28;20502;-55
2022/02/20 23:20:37;;;;;;;9.45;2.20;;;5.40;75.50;;;;;;5052803;28;20044;-54
2022/02/20 23:23:04;;;;;;;10.63;2.15;;;5.50;73.40;;;;;;5052542;28;20049;-54
2022/02/20 23:25:30;;;;;;;12.05;2.50;;;5.50;75.00;;;;;;5052863;28;20037;-54
2022/02/20 23:27:57;;;;;;;10.35;2.58;;;5.50;74.40;;;;;;5052938;28;20063;-51
2022/02/20 23:30:24;;;;;;;10.45;2.28;;;5.40;74.70;;;;;;5052703;28;20099;-53
2022/02/20 23:32:53;;;;;;;9.68;2.00;;;5.40;74.80;;;;;;5052734;28;20071;-53
2022/02/20 23:35:20;;;;;;;11.70;2.33;;;5.40;76.00;;;;;;5052687;28;20068;-51
2022/02/20 23:37:47;;;;;;;12.73;2.42;;;5.40;75.30;;;;;;5052622;28;20049;-47
2022/02/20 23:40:14;;;;;;;7.93;2.53;;;5.30;76.40;;;;;;5048027;28;20496;-48
2022/02/20 23:42:40;;;;;;;15.38;2.70;;;5.40;75.40;;;;;;5033567;28;20053;-53
2022/02/20 23:45:07;;;;;;;13.95;2.53;;;5.30;75.70;;;;;;5038316;28;20045;-52
2022/02/20 23:47:34;;;;;;;16.33;3.30;;;5.30;76.10;;;;;;5046316;28;20041;-55
2022/02/20 23:50:01;;;;;;;13.35;2.58;;;5.30;76.60;;;;;;5051708;28;20400;-54
2022/02/20 23:52:27;;;;;;;14.57;2.88;;;5.30;76.40;;;;;;5052083;28;20373;-52
